createdAt,value
2022-11-29T15:24:28.334Z,-0.19
2022-11-29T15:27:40.110Z,-0.32
2022-11-29T16:02:17.830Z,-0.07
2022-11-29T16:37:49.938Z,-0.58
2022-11-29T16:49:07.055Z,-0.16
2022-11-29T16:56:24.251Z,-0.13
2022-11-29T17:03:35.117Z,-0.40
2022-11-29T17:07:17.835Z,0.05
2022-11-29T17:14:23.464Z,-0.27
2022-11-29T17:17:49.447Z,0.00
2022-11-29T17:21:00.548Z,-0.39
2022-11-29T17:24:09.620Z,-0.17
2022-11-29T17:27:21.044Z,-0.23
2022-11-29T17:30:32.604Z,-0.14
2022-11-29T17:33:44.688Z,-0.46
2022-11-29T17:36:51.226Z,-0.50
2022-11-29T17:39:58.778Z,-0.29
2022-11-29T17:43:09.647Z,-0.18
2022-11-29T17:46:20.665Z,-0.03
2022-11-29T17:49:28.872Z,-0.19
2022-11-29T17:52:34.184Z,-0.07
2022-11-29T17:55:40.645Z,0.10
2022-11-29T17:58:46.485Z,0.15
2022-11-29T18:01:56.969Z,0.06
2022-11-29T18:05:06.692Z,-0.01
2022-11-29T18:08:15.366Z,-0.05
2022-11-29T18:11:41.613Z,0.07
2022-11-29T18:14:53.691Z,-0.23
2022-11-29T18:18:01.546Z,0.10
2022-11-29T18:21:11.737Z,0.08
2022-11-29T18:24:17.033Z,0.15
2022-11-29T18:27:24.969Z,0.11
2022-11-29T18:30:30.265Z,-0.00
2022-11-29T18:33:57.988Z,0.07
2022-11-29T18:44:50.987Z,0.01
2022-11-29T18:48:20.176Z,-0.31
2022-11-29T18:51:56.072Z,0.19
2022-11-29T18:55:05.832Z,0.24
2022-11-29T18:58:17.777Z,-0.06
2022-11-29T19:01:34.908Z,-0.04
2022-11-29T19:04:41.730Z,0.14
2022-11-29T19:08:08.708Z,-0.18
2022-11-29T19:11:37.206Z,0.33
2022-11-29T20:07:06.273Z,0.69
2022-11-29T20:10:35.559Z,0.54
2022-11-29T21:59:37.136Z,0.81
2022-11-29T22:03:32.255Z,0.89
